sensor_id;sensor_type;location;lat;lon;timestamp;pressure;altitude;pressure_sealevel;temperature;humidity
19797;BME280;10058;57.654;12.044;2023-04-20T00:00:31;102634.91;;;6.22;100.00
19797;BME280;10058;57.654;12.044;2023-04-20T00:02:56;102631.22;;;6.09;100.00
19797;BME280;10058;57.654;12.044;2023-04-20T00:05:22;102625.53;;;6.03;100.00
19797;BME280;10058;57.654;12.044;2023-04-20T00:07:48;102636.47;;;5.97;100.00
19797;BME280;10058;57.654;12.044;2023-04-20T00:10:13;102636.72;;;6.00;100.00
19797;BME280;10058;57.654;12.044;2023-04-20T00:12:38;102627.56;;;5.95;100.00
19797;BME280;10058;57.654;12.044;2023-04-20T00:15:05;102636.91;;;5.91;100.00
19797;BME280;10058;57.654;12.044;2023-04-20T00:17:30;102622.53;;;5.86;100.00
19797;BME280;10058;57.654;12.044;2023-04-20T00:19:56;102634.97;;;5.89;100.00
19797;BME280;10058;57.654;12.044;2023-04-20T00:22:21;102633.69;;;5.84;100.00
19797;BME280;10058;57.654;12.044;2023-04-20T00:24:46;102631.63;;;5.80;100.00
19797;BME280;10058;57.654;12.044;2023-04-20T00:27:11;102626.84;;;5.86;100.00
19797;BME280;10058;57.654;12.044;2023-04-20T00:29:37;102627.66;;;5.85;100.00
19797;BME280;10058;57.654;12.044;2023-04-20T00:32:02;102628.22;;;5.81;100.00
19797;BME280;10058;57.654;12.044;2023-04-20T00:34:27;102621.13;;;5.80;100.00
19797;BME280;10058;57.654;12.044;2023-04-20T00:36:52;102620.66;;;5.74;100.00
19797;BME280;10058;57.654;12.044;2023-04-20T00:39:17;102619.16;;;5.66;100.00
19797;BME280;10058;57.654;12.044;2023-04-20T00:41:43;102615.19;;;5.71;100.00
19797;BME280;10058;57.654;12.044;2023-04-20T00:44:08;102618.38;;;5.67;100.00
19797;BME280;10058;57.654;12.044;2023-04-20T00:46:37;102618.25;;;5.77;100.00
19797;BME280;10058;57.654;12.044;2023-04-20T00:49:03;102608.31;;;5.73;100.00
19797;BME280;10058;57.654;12.044;2023-04-20T00:51:28;102617.88;;;5.60;100.00
19797;BME280;10058;57.654;12.044;2023-04-20T00:53:53;102605.56;;;5.59;100.00
19797;BME280;10058;57.654;12.044;2023-04-20T00:56:18;102612.50;;;5.47;100.00
19797;BME280;10058;57.654;12.044;2023-04-20T00:58:44;102608.69;;;5.32;100.00
19797;BME280;10058;57.654;12.044;2023-04-20T01:01:10;102615.28;;;5.27;100.00
19797;BME280;10058;57.654;12.044;2023-04-20T01:03:35;102603.63;;;5.23;100.00
19797;BME280;10058;57.654;12.044;2023-04-20T01:06:01;102612.41;;;5.24;100.00
19797;BME280;10058;57.654;12.044;2023-04-20T01:08:27;102613.44;;;5.26;100.00
19797;BME280;10058;57.654;12.044;2023-04-20T01:10:53;102614.78;;;5.21;100.00
19797;BME280;10058;57.654;12.044;2023-04-20T01:13:18;102616.88;;;5.25;100.00
19797;BME280;10058;57.654;12.044;2023-04-20T01:15:43;102613.44;;;5.26;100.00
19797;BME280;10058;57.654;12.044;2023-04-20T01:18:09;102614.78;;;5.21;100.00
19797;BME280;10058;57.654;12.044;2023-04-20T01:20:34;102607.72;;;5.20;100.00
19797;BME280;10058;57.654;12.044;2023-04-20T01:22:59;102606.38;;;5.25;100.00
19797;BME280;10058;57.654;12.044;2023-04-20T01:25:24;102616.16;;;5.16;100.00
19797;BME280;10058;57.654;12.044;2023-04-20T01:27:49;102610.44;;;5.10;100.00
19797;BME280;10058;57.654;12.044;2023-04-20T01:30:15;102621.78;;;4.99;100.00
19797;BME280;10058;57.654;12.044;2023-04-20T01:32:41;102623.16;;;5.05;100.00
19797;BME280;10058;57.654;12.044;2023-04-20T01:35:07;102613.34;;;5.03;100.00
19797;BME280;10058;57.654;12.044;2023-04-20T01:37:32;102608.97;;;4.92;100.00
19797;BME280;10058;57.654;12.044;2023-04-20T01:39:57;102607.34;;;4.82;100.00
19797;BME280;10058;57.654;12.044;2023-04-20T01:42:22;102607.25;;;4.70;100.00
19797;BME280;10058;57.654;12.044;2023-04-20T01:44:48;102610.44;;;4.66;100.00
19797;BME280;10058;57.654;12.044;2023-04-20T01:47:13;102603.84;;;4.71;100.00
19797;BME280;10058;57.654;12.044;2023-04-20T01:49:38;102599.47;;;4.60;100.00
19797;BME280;10058;57.654;12.044;2023-04-20T01:52:04;102596.78;;;4.70;100.00
19797;BME280;10058;57.654;12.044;2023-04-20T01:54:29;102603.72;;;4.92;100.00
19797;BME280;10058;57.654;12.044;2023-04-20T01:56:55;102588.88;;;4.80;100.00
19797;BME280;10058;57.654;12.044;2023-04-20T01:59:21;102594.41;;;4.73;100.00
19797;BME280;10058;57.654;12.044;2023-04-20T02:01:46;102587.47;;;4.74;100.00
19797;BME280;10058;57.654;12.044;2023-04-20T02:04:12;102599.47;;;4.60;100.00
19797;BME280;10058;57.654;12.044;2023-04-20T02:06:37;102594.88;;;4.58;100.00
19797;BME280;10058;57.654;12.044;2023-04-20T02:09:02;102593.69;;;4.64;100.00
19797;BME280;10058;57.654;12.044;2023-04-20T02:11:27;102589.50;;;4.66;100.00
19797;BME280;10058;57.654;12.044;2023-04-20T02:13:52;102589.69;;;4.69;100.00
19797;BME280;10058;57.654;12.044;2023-04-20T02:16:18;102586.28;;;4.70;100.00
19797;BME280;10058;57.654;12.044;2023-04-20T02:18:43;102589.13;;;4.83;100.00
19797;BME280;10058;57.654;12.044;2023-04-20T02:21:09;102583.38;;;4.77;100.00
19797;BME280;10058;57.654;12.044;2023-04-20T02:23:35;102585.88;;;4.76;100.00
19797;BME280;10058;57.654;12.044;2023-04-20T02:26:00;102583.94;;;4.73;100.00
19797;BME280;10058;57.654;12.044;2023-04-20T02:28:25;102590.72;;;4.81;100.00
19797;BME280;10058;57.654;12.044;2023-04-20T02:30:50;102588.63;;;4.77;100.00
19797;BME280;10058;57.654;12.044;2023-04-20T02:33:16;102589.97;;;4.72;100.00
19797;BME280;10058;57.654;12.044;2023-04-20T02:35:41;102589.03;;;4.72;100.00
19797;BME280;10058;57.654;12.044;2023-04-20T02:38:06;102587.59;;;4.75;100.00
19797;BME280;10058;57.654;12.044;2023-04-20T02:40:31;102581.31;;;4.73;100.00
19797;BME280;10058;57.654;12.044;2023-04-20T02:42:57;102583.94;;;4.73;100.00
19797;BME280;10058;57.654;12.044;2023-04-20T02:45:22;102582.28;;;4.85;100.00
19797;BME280;10058;57.654;12.044;2023-04-20T02:47:47;102582.06;;;4.82;100.00
19797;BME280;10058;57.654;12.044;2023-04-20T02:50:12;102575.22;;;4.84;100.00
19797;BME280;10058;57.654;12.044;2023-04-20T02:52:38;102579.56;;;4.84;100.00
19797;BME280;10058;57.654;12.044;2023-04-20T02:55:03;102575.44;;;4.87;100.00
19797;BME280;10058;57.654;12.044;2023-04-20T02:57:28;102581.59;;;4.88;100.00
19797;BME280;10058;57.654;12.044;2023-04-20T02:59:54;102576.56;;;4.79;100.00
19797;BME280;10058;57.654;12.044;2023-04-20T03:02:19;102573.88;;;4.89;100.00
19797;BME280;10058;57.654;12.044;2023-04-20T03:04:44;102582.78;;;4.92;100.00
19797;BME280;10058;57.654;12.044;2023-04-20T03:07:10;102570.78;;;4.83;100.00
19797;BME280;10058;57.654;12.044;2023-04-20T03:09:35;102580.13;;;4.70;100.00
19797;BME280;10058;57.654;12.044;2023-04-20T03:12:01;102569.84;;;4.61;100.00
19797;BME280;10058;57.654;12.044;2023-04-20T03:14:27;102573.28;;;4.60;100.00
19797;BME280;10058;57.654;12.044;2023-04-20T03:16:52;102568.53;;;4.66;100.00
19797;BME280;10058;57.654;12.044;2023-04-20T03:19:17;102574.06;;;4.59;100.00
19797;BME280;10058;57.654;12.044;2023-04-20T03:21:43;102573.41;;;4.83;100.00
19797;BME280;10058;57.654;12.044;2023-04-20T03:24:08;102569.53;;;4.68;100.00
19797;BME280;10058;57.654;12.044;2023-04-20T03:26:33;102575.28;;;4.74;100.00
19797;BME280;10058;57.654;12.044;2023-04-20T03:29:00;102574.88;;;4.80;100.00
19797;BME280;10058;57.654;12.044;2023-04-20T03:31:25;102575.44;;;4.87;100.00
19797;BME280;10058;57.654;12.044;2023-04-20T03:33:50;102574.50;;;4.75;100.00
19797;BME280;10058;57.654;12.044;2023-04-20T03:36:15;102578.66;;;4.83;100.00
19797;BME280;10058;57.654;12.044;2023-04-20T03:38:41;102575.41;;;4.76;100.00
19797;BME280;10058;57.654;12.044;2023-04-20T03:41:06;102573.63;;;4.86;100.00
19797;BME280;10058;57.654;12.044;2023-04-20T03:43:32;102574.75;;;4.78;100.00
19797;BME280;10058;57.654;12.044;2023-04-20T03:45:57;102582.06;;;4.82;100.00
19797;BME280;10058;57.654;12.044;2023-04-20T03:48:22;102575.03;;;4.71;100.00
19797;BME280;10058;57.654;12.044;2023-04-20T03:50:47;102575.03;;;4.71;100.00
19797;BME280;10058;57.654;12.044;2023-04-20T03:53:13;102580.22;;;4.81;100.00
19797;BME280;10058;57.654;12.044;2023-04-20T03:55:38;102567.84;;;4.69;100.00
19797;BME280;10058;57.654;12.044;2023-04-20T03:58:06;102566.69;;;4.65;100.00
19797;BME280;10058;57.654;12.044;2023-04-20T04:00:31;102570.94;;;4.53;100.00
19797;BME280;10058;57.654;12.044;2023-04-20T04:02:56;102564.13;;;4.55;100.00
19797;BME280;10058;57.654;12.044;2023-04-20T04:05:21;102567.25;;;4.61;100.00
19797;BME280;10058;57.654;12.044;2023-04-20T04:07:47;102564.38;;;4.58;100.00
19797;BME280;10058;57.654;12.044;2023-04-20T04:10:12;102562.66;;;4.59;100.00
19797;BME280;10058;57.654;12.044;2023-04-20T04:12:37;102568.94;;;4.61;100.00
19797;BME280;10058;57.654;12.044;2023-04-20T04:15:02;102564.31;;;4.68;100.00
19797;BME280;10058;57.654;12.044;2023-04-20T04:17:27;102566.13;;;4.69;100.00
19797;BME280;10058;57.654;12.044;2023-04-20T04:19:53;102568.69;;;4.58;100.00
19797;BME280;10058;57.654;12.044;2023-04-20T04:22:18;102575.59;;;4.67;100.00
19797;BME280;10058;57.654;12.044;2023-04-20T04:24:43;102581.06;;;4.70;100.00
19797;BME280;10058;57.654;12.044;2023-04-20T04:27:08;102582.41;;;4.65;100.00
19797;BME280;10058;57.654;12.044;2023-04-20T04:29:35;102576.47;;;4.68;100.00
19797;BME280;10058;57.654;12.044;2023-04-20T04:32:02;102581.00;;;4.80;100.00
19797;BME280;10058;57.654;12.044;2023-04-20T04:34:28;102581.56;;;4.98;100.00
19797;BME280;10058;57.654;12.044;2023-04-20T04:36:53;102583.50;;;5.01;100.00
19797;BME280;10058;57.654;12.044;2023-04-20T04:39:19;102580.66;;;5.31;100.00
19797;BME280;10058;57.654;12.044;2023-04-20T04:41:44;102581.03;;;5.14;100.00
19797;BME280;10058;57.654;12.044;2023-04-20T04:44:09;102578.72;;;5.07;100.00
19797;BME280;10058;57.654;12.044;2023-04-20T04:46:36;102582.09;;;5.16;100.00
19797;BME280;10058;57.654;12.044;2023-04-20T04:49:01;102580.16;;;5.25;100.00
19797;BME280;10058;57.654;12.044;2023-04-20T04:51:26;102591.13;;;5.31;100.00
19797;BME280;10058;57.654;12.044;2023-04-20T04:53:53;102582.97;;;5.50;100.00
19797;BME280;10058;57.654;12.044;2023-04-20T04:56:19;102585.06;;;5.66;100.00
19797;BME280;10058;57.654;12.044;2023-04-20T04:58:44;102568.72;;;5.58;100.00
19797;BME280;10058;57.654;12.044;2023-04-20T05:01:10;102565.94;;;5.90;100.00
19797;BME280;10058;57.654;12.044;2023-04-20T05:03:35;102567.97;;;5.82;100.00
19797;BME280;10058;57.654;12.044;2023-04-20T05:06:00;102569.88;;;5.62;100.00
19797;BME280;10058;57.654;12.044;2023-04-20T05:08:26;102570.69;;;5.60;100.00
19797;BME280;10058;57.654;12.044;2023-04-20T05:10:51;102566.63;;;5.99;100.00
19797;BME280;10058;57.654;12.044;2023-04-20T05:13:16;102569.69;;;5.82;100.00
19797;BME280;10058;57.654;12.044;2023-04-20T05:15:41;102565.69;;;5.87;100.00
19797;BME280;10058;57.654;12.044;2023-04-20T05:18:07;102568.78;;;5.93;100.00
19797;BME280;10058;57.654;12.044;2023-04-20T05:20:32;102557.84;;;5.99;100.00
19797;BME280;10058;57.654;12.044;2023-04-20T05:22:57;102560.69;;;6.13;100.00
19797;BME280;10058;57.654;12.044;2023-04-20T05:25:22;102560.00;;;6.16;100.00
19797;BME280;10058;57.654;12.044;2023-04-20T05:27:47;102552.41;;;6.44;100.00
19797;BME280;10058;57.654;12.044;2023-04-20T05:30:13;102556.16;;;6.95;100.00
19797;BME280;10058;57.654;12.044;2023-04-20T05:32:38;102563.66;;;7.03;100.00
19797;BME280;10058;57.654;12.044;2023-04-20T05:35:03;102553.31;;;7.55;100.00
19797;BME280;10058;57.654;12.044;2023-04-20T05:37:29;102553.31;;;7.55;100.00
19797;BME280;10058;57.654;12.044;2023-04-20T05:39:54;102555.28;;;7.33;100.00
19797;BME280;10058;57.654;12.044;2023-04-20T05:42:19;102548.91;;;8.20;100.00
19797;BME280;10058;57.654;12.044;2023-04-20T05:44:44;102552.34;;;8.19;100.00
19797;BME280;10058;57.654;12.044;2023-04-20T05:47:09;102537.25;;;9.41;100.00
19797;BME280;10058;57.654;12.044;2023-04-20T05:49:35;102538.38;;;9.02;100.00
19797;BME280;10058;57.654;12.044;2023-04-20T05:52:00;102557.81;;;8.22;100.00
19797;BME280;10058;57.654;12.044;2023-04-20T05:54:26;102562.22;;;7.57;100.00
19797;BME280;10058;57.654;12.044;2023-04-20T05:56:52;102554.25;;;7.69;100.00
19797;BME280;10058;57.654;12.044;2023-04-20T05:59:17;102543.97;;;8.79;100.00
19797;BME280;10058;57.654;12.044;2023-04-20T06:01:43;102550.69;;;8.61;100.00
19797;BME280;10058;57.654;12.044;2023-04-20T06:04:08;102548.41;;;8.26;100.00
19797;BME280;10058;57.654;12.044;2023-04-20T06:06:33;102547.47;;;7.99;100.00
19797;BME280;10058;57.654;12.044;2023-04-20T06:08:58;102560.25;;;8.06;100.00
19797;BME280;10058;57.654;12.044;2023-04-20T06:11:24;102551.22;;;8.02;100.00
19797;BME280;10058;57.654;12.044;2023-04-20T06:13:49;102498.38;;;8.13;100.00
19797;BME280;10058;57.654;12.044;2023-04-20T06:16:14;102544.13;;;8.54;100.00
19797;BME280;10058;57.654;12.044;2023-04-20T06:18:39;102557.44;;;8.43;100.00
19797;BME280;10058;57.654;12.044;2023-04-20T06:21:07;102551.50;;;8.60;100.00
19797;BME280;10058;57.654;12.044;2023-04-20T06:23:33;102548.63;;;8.70;100.00
19797;BME280;10058;57.654;12.044;2023-04-20T06:25:58;102544.50;;;8.88;100.00
19797;BME280;10058;57.654;12.044;2023-04-20T06:28:23;102555.97;;;8.61;100.00
19797;BME280;10058;57.654;12.044;2023-04-20T06:30:48;102561.59;;;8.80;100.00
19797;BME280;10058;57.654;12.044;2023-04-20T06:33:13;102555.88;;;9.15;100.00
19797;BME280;10058;57.654;12.044;2023-04-20T06:35:41;102541.00;;;9.74;100.00
19797;BME280;10058;57.654;12.044;2023-04-20T06:38:06;102547.09;;;9.73;100.00
19797;BME280;10058;57.654;12.044;2023-04-20T06:40:31;102540.19;;;9.75;100.00
19797;BME280;10058;57.654;12.044;2023-04-20T06:42:56;102542.81;;;9.75;100.00
19797;BME280;10058;57.654;12.044;2023-04-20T06:45:22;102536.03;;;10.10;100.00
19797;BME280;10058;57.654;12.044;2023-04-20T06:47:47;102529.41;;;10.48;100.00
19797;BME280;10058;57.654;12.044;2023-04-20T06:50:12;102536.13;;;10.11;100.00
19797;BME280;10058;57.654;12.044;2023-04-20T06:52:38;102541.13;;;10.36;100.00
19797;BME280;10058;57.654;12.044;2023-04-20T06:55:03;102533.84;;;10.32;100.00
19797;BME280;10058;57.654;12.044;2023-04-20T06:57:29;102528.13;;;10.72;100.00
19797;BME280;10058;57.654;12.044;2023-04-20T06:59:54;102527.41;;;10.91;100.00
19797;BME280;10058;57.654;12.044;2023-04-20T07:02:19;102528.94;;;11.20;100.00
19797;BME280;10058;57.654;12.044;2023-04-20T07:04:44;102517.72;;;11.24;100.00
19797;BME280;10058;57.654;12.044;2023-04-20T07:07:10;102517.72;;;11.24;100.00
19797;BME280;10058;57.654;12.044;2023-04-20T07:09:35;102504.44;;;11.40;100.00
19797;BME280;10058;57.654;12.044;2023-04-20T07:12:01;102510.94;;;11.46;100.00
19797;BME280;10058;57.654;12.044;2023-04-20T07:14:26;102513.63;;;11.30;100.00
19797;BME280;10058;57.654;12.044;2023-04-20T07:16:52;102516.84;;;11.41;100.00
19797;BME280;10058;57.654;12.044;2023-04-20T07:19:17;102510.94;;;11.46;100.00
19797;BME280;10058;57.654;12.044;2023-04-20T07:21:42;102511.44;;;11.73;100.00
19797;BME280;10058;57.654;12.044;2023-04-20T07:24:07;102507.03;;;11.56;100.00
19797;BME280;10058;57.654;12.044;2023-04-20T07:26:33;102507.13;;;11.92;100.00
19797;BME280;10058;57.654;12.044;2023-04-20T07:28:58;102501.53;;;12.40;100.00
19797;BME280;10058;57.654;12.044;2023-04-20T07:31:23;102502.69;;;12.45;100.00
19797;BME280;10058;57.654;12.044;2023-04-20T07:33:48;102509.03;;;12.31;100.00
19797;BME280;10058;57.654;12.044;2023-04-20T07:36:13;102502.69;;;12.45;100.00
19797;BME280;10058;57.654;12.044;2023-04-20T07:38:39;102497.06;;;12.39;100.00
19797;BME280;10058;57.654;12.044;2023-04-20T07:41:07;102500.38;;;12.53;100.00
19797;BME280;10058;57.654;12.044;2023-04-20T07:43:32;102494.59;;;12.62;100.00
19797;BME280;10058;57.654;12.044;2023-04-20T07:45:57;102494.03;;;12.88;100.00
19797;BME280;10058;57.654;12.044;2023-04-20T07:48:22;102490.00;;;12.77;100.00
19797;BME280;10058;57.654;12.044;2023-04-20T07:50:47;102489.16;;;12.97;100.00
19797;BME280;10058;57.654;12.044;2023-04-20T07:53:13;102494.03;;;12.88;100.00
19797;BME280;10058;57.654;12.044;2023-04-20T07:55:38;102485.78;;;13.01;100.00
19797;BME280;10058;57.654;12.044;2023-04-20T07:58:03;102475.19;;;13.20;100.00
19797;BME280;10058;57.654;12.044;2023-04-20T08:00:28;102482.56;;;13.08;98.25
19797;BME280;10058;57.654;12.044;2023-04-20T08:02:53;102487.00;;;13.27;99.03
19797;BME280;10058;57.654;12.044;2023-04-20T08:05:19;102491.31;;;13.25;96.44
19797;BME280;10058;57.654;12.044;2023-04-20T08:07:44;102484.19;;;13.24;95.58
19797;BME280;10058;57.654;12.044;2023-04-20T08:10:10;102486.63;;;13.19;94.93
19797;BME280;10058;57.654;12.044;2023-04-20T08:12:36;102485.91;;;13.43;96.11
19797;BME280;10058;57.654;12.044;2023-04-20T08:15:02;102487.97;;;13.29;93.18
19797;BME280;10058;57.654;12.044;2023-04-20T08:17:30;102485.00;;;13.42;91.82
19797;BME280;10058;57.654;12.044;2023-04-20T08:19:55;102485.91;;;13.43;93.14
19797;BME280;10058;57.654;12.044;2023-04-20T08:22:20;102488.25;;;13.77;92.90
19797;BME280;10058;57.654;12.044;2023-04-20T08:24:45;102476.84;;;13.58;92.42
19797;BME280;10058;57.654;12.044;2023-04-20T08:27:11;102484.09;;;13.83;90.67
19797;BME280;10058;57.654;12.044;2023-04-20T08:29:37;102479.56;;;13.81;91.34
19797;BME280;10058;57.654;12.044;2023-04-20T08:32:02;102474.41;;;13.85;89.27
19797;BME280;10058;57.654;12.044;2023-04-20T08:34:27;102472.88;;;13.90;87.36
19797;BME280;10058;57.654;12.044;2023-04-20T08:36:53;102473.69;;;13.89;86.20
19797;BME280;10058;57.654;12.044;2023-04-20T08:39:19;102470.81;;;14.06;88.49
19797;BME280;10058;57.654;12.044;2023-04-20T08:41:45;102459.72;;;14.16;85.31
19797;BME280;10058;57.654;12.044;2023-04-20T08:44:11;102465.28;;;14.22;86.32
19797;BME280;10058;57.654;12.044;2023-04-20T08:46:37;102467.19;;;14.04;83.46
19797;BME280;10058;57.654;12.044;2023-04-20T08:49:03;102458.09;;;14.42;85.44
19797;BME280;10058;57.654;12.044;2023-04-20T08:51:29;102458.56;;;14.32;82.76
19797;BME280;10058;57.654;12.044;2023-04-20T08:53:56;102471.94;;;14.33;84.06
19797;BME280;10058;57.654;12.044;2023-04-20T08:56:36;102466.75;;;14.36;82.06
19797;BME280;10058;57.654;12.044;2023-04-20T08:59:02;102456.44;;;14.23;81.61
19797;BME280;10058;57.654;12.044;2023-04-20T09:01:28;102452.28;;;14.07;81.15
19797;BME280;10058;57.654;12.044;2023-04-20T09:03:53;102448.34;;;14.65;82.05
19797;BME280;10058;57.654;12.044;2023-04-20T09:06:19;102461.09;;;14.28;81.89
19797;BME280;10058;57.654;12.044;2023-04-20T09:08:44;102445.41;;;14.81;83.26
19797;BME280;10058;57.654;12.044;2023-04-20T09:11:20;102440.31;;;14.87;81.52
19797;BME280;10058;57.654;12.044;2023-04-20T09:13:59;102440.41;;;14.42;79.66
19797;BME280;10058;57.654;12.044;2023-04-20T09:16:25;102452.78;;;14.42;78.23
19797;BME280;10058;57.654;12.044;2023-04-20T09:18:51;102444.97;;;14.69;80.05
19797;BME280;10058;57.654;12.044;2023-04-20T09:21:17;102444.28;;;14.98;80.00
19797;BME280;10058;57.654;12.044;2023-04-20T09:23:43;102436.72;;;15.36;81.05
19797;BME280;10058;57.654;12.044;2023-04-20T09:26:19;102442.56;;;15.25;79.27
19797;BME280;10058;57.654;12.044;2023-04-20T09:28:44;102433.09;;;15.33;79.46
19797;BME280;10058;57.654;12.044;2023-04-20T09:31:17;102437.72;;;15.14;77.00
19797;BME280;10058;57.654;12.044;2023-04-20T09:33:42;102432.41;;;15.39;77.57
19797;BME280;10058;57.654;12.044;2023-04-20T09:36:08;102429.81;;;15.41;77.98
19797;BME280;10058;57.654;12.044;2023-04-20T09:38:34;102436.34;;;15.50;76.74
19797;BME280;10058;57.654;12.044;2023-04-20T09:41:00;102429.81;;;15.41;75.71
19797;BME280;10058;57.654;12.044;2023-04-20T09:43:26;102433.97;;;15.32;74.96
19797;BME280;10058;57.654;12.044;2023-04-20T09:45:51;102434.13;;;15.37;75.80
19797;BME280;10058;57.654;12.044;2023-04-20T09:48:17;102443.13;;;15.66;75.25
19797;BME280;10058;57.654;12.044;2023-04-20T09:50:43;102440.13;;;15.82;75.67
19797;BME280;10058;57.654;12.044;2023-04-20T09:53:08;102436.06;;;15.95;73.69
19797;BME280;10058;57.654;12.044;2023-04-20T09:55:34;102431.56;;;15.92;73.41
19797;BME280;10058;57.654;12.044;2023-04-20T09:58:03;102423.63;;;15.67;73.96
19797;BME280;10058;57.654;12.044;2023-04-20T10:00:28;102415.16;;;16.07;74.18
19797;BME280;10058;57.654;12.044;2023-04-20T10:02:54;102402.13;;;15.89;72.83
19797;BME280;10058;57.654;12.044;2023-04-20T10:05:19;102416.19;;;15.57;72.53
19797;BME280;10058;57.654;12.044;2023-04-20T10:07:59;102409.56;;;15.99;73.90
19797;BME280;10058;57.654;12.044;2023-04-20T10:10:25;102396.25;;;16.29;71.62
19797;BME280;10058;57.654;12.044;2023-04-20T10:12:51;102400.78;;;16.32;72.50
19797;BME280;10058;57.654;12.044;2023-04-20T10:15:16;102418.00;;;15.58;72.38
19797;BME280;10058;57.654;12.044;2023-04-20T10:17:42;102404.81;;;15.89;73.08
19797;BME280;10058;57.654;12.044;2023-04-20T10:23:06;102393.47;;;16.25;72.57
19797;BME280;10058;57.654;12.044;2023-04-20T10:25:32;102388.94;;;16.52;71.30
19797;BME280;10058;57.654;12.044;2023-04-20T10:27:59;102385.78;;;16.65;71.29
19797;BME280;10058;57.654;12.044;2023-04-20T10:30:25;102387.13;;;16.51;69.16
19797;BME280;10058;57.654;12.044;2023-04-20T10:33:01;102374.97;;;16.62;69.48
19797;BME280;10058;57.654;12.044;2023-04-20T10:35:27;102381.13;;;16.90;69.87
19797;BME280;10058;57.654;12.044;2023-04-20T10:37:52;102377.91;;;17.03;71.22
19797;BME280;10058;57.654;12.044;2023-04-20T10:40:24;102378.72;;;16.67;68.37
19797;BME280;10058;57.654;12.044;2023-04-20T10:42:51;102373.38;;;16.67;69.49
19797;BME280;10058;57.654;12.044;2023-04-20T10:45:16;102378.50;;;16.91;69.45
19797;BME280;10058;57.654;12.044;2023-04-20T10:47:41;102379.50;;;16.95;69.18
19797;BME280;10058;57.654;12.044;2023-04-20T10:50:07;102368.28;;;17.08;68.49
19797;BME280;10058;57.654;12.044;2023-04-20T10:52:33;102371.25;;;16.87;67.94
19797;BME280;10058;57.654;12.044;2023-04-20T10:55:00;102372.56;;;16.70;68.21
19797;BME280;10058;57.654;12.044;2023-04-20T10:57:25;102374.47;;;16.74;67.28
19797;BME280;10058;57.654;12.044;2023-04-20T10:59:50;102370.19;;;16.81;67.82
19797;BME280;10058;57.654;12.044;2023-04-20T11:02:15;102363.66;;;16.69;67.03
19797;BME280;10058;57.654;12.044;2023-04-20T11:04:40;102361.75;;;16.97;66.47
19797;BME280;10058;57.654;12.044;2023-04-20T11:07:07;102346.59;;;17.30;66.52
19797;BME280;10058;57.654;12.044;2023-04-20T11:09:32;102356.22;;;17.60;67.14
19797;BME280;10058;57.654;12.044;2023-04-20T11:11:59;102345.38;;;17.54;68.35
19797;BME280;10058;57.654;12.044;2023-04-20T11:14:26;102342.22;;;17.70;67.82
19797;BME280;10058;57.654;12.044;2023-04-20T11:16:51;102332.41;;;17.70;66.35
19797;BME280;10058;57.654;12.044;2023-04-20T11:19:27;102334.81;;;17.60;66.08
19797;BME280;10058;57.654;12.044;2023-04-20T11:21:53;102328.81;;;17.68;66.84
19797;BME280;10058;57.654;12.044;2023-04-20T11:26:44;102319.66;;;17.96;69.03
19797;BME280;10058;57.654;12.044;2023-04-20T11:29:09;102331.16;;;17.92;65.47
19797;BME280;10058;57.654;12.044;2023-04-20T11:31:35;102332.66;;;18.22;65.55
19797;BME280;10058;57.654;12.044;2023-04-20T11:34:00;102318.59;;;17.90;64.54
19797;BME280;10058;57.654;12.044;2023-04-20T11:36:26;102320.97;;;17.76;65.17
19797;BME280;10058;57.654;12.044;2023-04-20T11:38:53;102317.88;;;17.97;66.85
19797;BME280;10058;57.654;12.044;2023-04-20T11:41:19;102311.31;;;17.83;65.12
19797;BME280;10058;57.654;12.044;2023-04-20T11:43:45;102307.78;;;18.26;68.15
19797;BME280;10058;57.654;12.044;2023-04-20T11:46:17;102306.91;;;18.27;67.67
19797;BME280;10058;57.654;12.044;2023-04-20T11:48:43;102305.53;;;18.47;63.94
19797;BME280;10058;57.654;12.044;2023-04-20T11:51:08;102309.00;;;18.41;64.36
19797;BME280;10058;57.654;12.044;2023-04-20T11:53:34;102305.84;;;18.61;65.11
19797;BME280;10058;57.654;12.044;2023-04-20T11:55:59;102297.09;;;18.69;64.77
19797;BME280;10058;57.654;12.044;2023-04-20T11:58:24;102293.66;;;18.33;63.73
19797;BME280;10058;57.654;12.044;2023-04-20T12:00:49;102293.53;;;18.27;64.81
19797;BME280;10058;57.654;12.044;2023-04-20T12:03:15;102304.34;;;18.76;64.80
19797;BME280;10058;57.654;12.044;2023-04-20T12:05:40;102299.84;;;18.75;63.40
19797;BME280;10058;57.654;12.044;2023-04-20T12:08:07;102294.56;;;18.78;62.18
19797;BME280;10058;57.654;12.044;2023-04-20T12:10:32;102287.38;;;18.76;63.63
19797;BME280;10058;57.654;12.044;2023-04-20T12:12:57;102295.13;;;18.61;61.80
19797;BME280;10058;57.654;12.044;2023-04-20T12:15:23;102297.44;;;18.44;61.16
19797;BME280;10058;57.654;12.044;2023-04-20T12:17:49;102285.06;;;18.49;64.36
19797;BME280;10058;57.654;12.044;2023-04-20T12:20:14;102285.44;;;18.67;64.77
19797;BME280;10058;57.654;12.044;2023-04-20T12:22:39;102276.88;;;18.90;63.30
19797;BME280;10058;57.654;12.044;2023-04-20T12:25:05;102278.94;;;18.56;62.68
19797;BME280;10058;57.654;12.044;2023-04-20T12:27:30;102280.22;;;18.76;62.27
19797;BME280;10058;57.654;12.044;2023-04-20T12:29:55;102281.06;;;18.74;62.99
19797;BME280;10058;57.654;12.044;2023-04-20T12:32:21;102232.19;;;18.86;60.73
19797;BME280;10058;57.654;12.044;2023-04-20T12:34:46;102264.69;;;19.07;62.13